BAW1325 EGKK-BIKF
Flight info
| Callsign | BAW1325 |
|---|---|
| Flight time | 2h 51m |
| Altitude | 36000 |
| Route | LAM L10 BPK UN601 RIBEL DCT ERSON DCT BARKU DCT RATSU/M077F360 DCT ING DCT NASBU NASBU5N |
| Aircraft | A320/M-SDE3FGHIRWY/LB1 |
Departure
| Time | 2026-05-06 20:56 |
|---|---|
| Airport | London Gatwick Airport (EGKK) |
Arrival
| Time | 2026-05-06 23:47 |
|---|---|
| Airport | Keflavik International Airport (BIKF) |
| Time | Latitude | Longitude | Altitude | Speed | Heading |
|---|---|---|---|---|---|
| 2026-05-06 20:12 | 51.16152 | -0.18048 | 214 ft | 0 kts | 77° |
| 2026-05-06 20:28 | 51.16152 | -0.18049 | 205 ft | 0 kts | 77° |
| 2026-05-06 20:39 | 51.16148 | -0.18078 | 212 ft | 3 kts | 79° |
| 2026-05-06 20:39 | 51.16145 | -0.18115 | 205 ft | 3 kts | 85° |
| 2026-05-06 20:39 | 51.16144 | -0.18152 | 208 ft | 3 kts | 98° |
| 2026-05-06 20:39 | 51.16150 | -0.18184 | 212 ft | 3 kts | 140° |
| 2026-05-06 20:40 | 51.16158 | -0.18193 | 214 ft | 1 kts | 168° |
| 2026-05-06 20:42 | 51.16157 | -0.18193 | 214 ft | 1 kts | 168° |
| 2026-05-06 20:42 | 51.16148 | -0.18189 | 210 ft | 2 kts | 168° |
| 2026-05-06 20:42 | 51.16126 | -0.18182 | 217 ft | 4 kts | 168° |
| 2026-05-06 20:42 | 51.16094 | -0.18171 | 205 ft | 6 kts | 168° |
| 2026-05-06 20:43 | 51.16049 | -0.18171 | 205 ft | 7 kts | 203° |
| 2026-05-06 20:43 | 51.16022 | -0.18242 | 211 ft | 8 kts | 237° |
| 2026-05-06 20:43 | 51.15967 | -0.18256 | 205 ft | 9 kts | 169° |
| 2026-05-06 20:43 | 51.15897 | -0.18233 | 205 ft | 11 kts | 168° |
| 2026-05-06 20:44 | 51.15814 | -0.18205 | 215 ft | 13 kts | 168° |
| 2026-05-06 20:44 | 51.15726 | -0.18175 | 208 ft | 10 kts | 168° |
| 2026-05-06 20:44 | 51.15661 | -0.18219 | 211 ft | 11 kts | 219° |
| 2026-05-06 20:44 | 51.15582 | -0.18225 | 208 ft | 13 kts | 168° |
| 2026-05-06 20:45 | 51.15488 | -0.18191 | 205 ft | 15 kts | 167° |
| 2026-05-06 20:45 | 51.15385 | -0.18145 | 207 ft | 16 kts | 168° |
| 2026-05-06 20:45 | 51.15270 | -0.18107 | 209 ft | 15 kts | 168° |
| 2026-05-06 20:45 | 51.15199 | -0.18188 | 212 ft | 16 kts | 257° |
| 2026-05-06 20:46 | 51.15181 | -0.18368 | 205 ft | 17 kts | 259° |
| 2026-05-06 20:46 | 51.15154 | -0.18564 | 210 ft | 19 kts | 257° |
| 2026-05-06 20:46 | 51.15123 | -0.18779 | 209 ft | 21 kts | 257° |
| 2026-05-06 20:46 | 51.15090 | -0.19002 | 210 ft | 21 kts | 258° |
| 2026-05-06 20:47 | 51.15063 | -0.19224 | 205 ft | 19 kts | 258° |
| 2026-05-06 20:47 | 51.15035 | -0.19432 | 211 ft | 17 kts | 258° |
| 2026-05-06 20:47 | 51.15013 | -0.19595 | 210 ft | 15 kts | 257° |
| 2026-05-06 20:47 | 51.14988 | -0.19770 | 209 ft | 17 kts | 257° |
| 2026-05-06 20:48 | 51.14961 | -0.19962 | 205 ft | 19 kts | 257° |
| 2026-05-06 20:48 | 51.14930 | -0.20178 | 207 ft | 21 kts | 257° |
| 2026-05-06 20:48 | 51.14902 | -0.20392 | 204 ft | 18 kts | 258° |
| 2026-05-06 20:48 | 51.14876 | -0.20581 | 209 ft | 18 kts | 257° |
| 2026-05-06 20:49 | 51.14847 | -0.20783 | 205 ft | 19 kts | 258° |
| 2026-05-06 20:49 | 51.14823 | -0.20967 | 211 ft | 16 kts | 258° |
| 2026-05-06 20:49 | 51.14799 | -0.21133 | 205 ft | 14 kts | 254° |
| 2026-05-06 20:49 | 51.14770 | -0.21284 | 211 ft | 15 kts | 258° |
| 2026-05-06 20:50 | 51.14741 | -0.21399 | 213 ft | 9 kts | 217° |
| 2026-05-06 20:50 | 51.14728 | -0.21405 | 216 ft | 0 kts | 190° |
| 2026-05-06 20:51 | 51.14727 | -0.21405 | 216 ft | 1 kts | 188° |
| 2026-05-06 20:52 | 51.14716 | -0.21404 | 211 ft | 3 kts | 175° |
| 2026-05-06 20:52 | 51.14688 | -0.21396 | 211 ft | 5 kts | 165° |
| 2026-05-06 20:52 | 51.14659 | -0.21357 | 217 ft | 6 kts | 134° |
| 2026-05-06 20:52 | 51.14620 | -0.21330 | 208 ft | 3 kts | 168° |
| 2026-05-06 20:53 | 51.14616 | -0.21329 | 205 ft | 0 kts | 168° |
| 2026-05-06 20:54 | 51.14610 | -0.21327 | 214 ft | 4 kts | 168° |
| 2026-05-06 20:54 | 51.14550 | -0.21285 | 213 ft | 11 kts | 141° |
| 2026-05-06 20:54 | 51.14522 | -0.21167 | 206 ft | 11 kts | 84° |
| 2026-05-06 20:54 | 51.14526 | -0.21130 | 214 ft | 0 kts | 78° |
| 2026-05-06 20:55 | 51.14530 | -0.21100 | 210 ft | 15 kts | 79° |
| 2026-05-06 20:55 | 51.14603 | -0.20573 | 212 ft | 81 kts | 78° |
| 2026-05-06 20:55 | 51.14761 | -0.19401 | 212 ft | 132 kts | 78° |
| 2026-05-06 20:55 | 51.14989 | -0.17751 | 253 ft | 169 kts | 77° |
| 2026-05-06 20:56 | 51.15235 | -0.15945 | 886 ft | 166 kts | 77° |
| 2026-05-06 20:56 | 51.15481 | -0.14150 | 1551 ft | 167 kts | 75° |
| 2026-05-06 20:56 | 51.15746 | -0.12251 | 1830 ft | 186 kts | 75° |
| 2026-05-06 20:56 | 51.16043 | -0.10122 | 2037 ft | 208 kts | 75° |
| 2026-05-06 20:57 | 51.16381 | -0.07755 | 2288 ft | 231 kts | 71° |
| 2026-05-06 20:57 | 51.17184 | -0.05443 | 2726 ft | 247 kts | 51° |
| 2026-05-06 20:57 | 51.18251 | -0.03250 | 3489 ft | 253 kts | 51° |
| 2026-05-06 20:57 | 51.19328 | -0.01039 | 4282 ft | 258 kts | 51° |
| 2026-05-06 20:58 | 51.20460 | 0.01296 | 4855 ft | 267 kts | 51° |
| 2026-05-06 20:58 | 51.21582 | 0.03620 | 5000 ft | 269 kts | 51° |
| 2026-05-06 20:58 | 51.22728 | 0.05998 | 5724 ft | 270 kts | 52° |
| 2026-05-06 20:58 | 51.23875 | 0.08383 | 6559 ft | 273 kts | 52° |
| 2026-05-06 20:59 | 51.24909 | 0.10954 | 6893 ft | 277 kts | 67° |
| 2026-05-06 20:59 | 51.25395 | 0.13928 | 6986 ft | 277 kts | 79° |
| 2026-05-06 20:59 | 51.25748 | 0.16959 | 6997 ft | 277 kts | 79° |
| 2026-05-06 20:59 | 51.26104 | 0.19987 | 7001 ft | 278 kts | 79° |
| 2026-05-06 21:00 | 51.26460 | 0.23016 | 7001 ft | 277 kts | 79° |
| 2026-05-06 21:00 | 51.26812 | 0.26043 | 7002 ft | 277 kts | 79° |
| 2026-05-06 21:00 | 51.27167 | 0.29066 | 7003 ft | 278 kts | 79° |
| 2026-05-06 21:00 | 51.27648 | 0.32042 | 7004 ft | 277 kts | 64° |
| 2026-05-06 21:01 | 51.28790 | 0.34471 | 7119 ft | 278 kts | 37° |
| 2026-05-06 21:01 | 51.30495 | 0.35870 | 7882 ft | 277 kts | 13° |
| 2026-05-06 21:01 | 51.32410 | 0.36011 | 8631 ft | 278 kts | 347° |
| 2026-05-06 21:01 | 51.34236 | 0.35007 | 9384 ft | 280 kts | 337° |
| 2026-05-06 21:02 | 51.36045 | 0.33832 | 10150 ft | 282 kts | 337° |
| 2026-05-06 21:02 | 51.37863 | 0.32639 | 10833 ft | 284 kts | 337° |
| 2026-05-06 21:02 | 51.39703 | 0.31430 | 11498 ft | 287 kts | 337° |
| 2026-05-06 21:02 | 51.41561 | 0.30215 | 12189 ft | 290 kts | 337° |
| 2026-05-06 21:03 | 51.43435 | 0.28992 | 12856 ft | 293 kts | 337° |
| 2026-05-06 21:03 | 51.45330 | 0.27755 | 13514 ft | 295 kts | 337° |
| 2026-05-06 21:03 | 51.47245 | 0.26508 | 14135 ft | 298 kts | 337° |
| 2026-05-06 21:03 | 51.49173 | 0.25255 | 14711 ft | 301 kts | 337° |
| 2026-05-06 21:04 | 51.51124 | 0.23983 | 15272 ft | 304 kts | 337° |
| 2026-05-06 21:04 | 51.53093 | 0.22700 | 15850 ft | 307 kts | 337° |
| 2026-05-06 21:04 | 51.54981 | 0.21473 | 16383 ft | 310 kts | 337° |
| 2026-05-06 21:04 | 51.56960 | 0.20183 | 16937 ft | 313 kts | 336° |
| 2026-05-06 21:05 | 51.58988 | 0.18859 | 17511 ft | 315 kts | 336° |
| 2026-05-06 21:05 | 51.61025 | 0.17525 | 18069 ft | 318 kts | 336° |
| 2026-05-06 21:05 | 51.63037 | 0.16023 | 18560 ft | 320 kts | 327° |
| 2026-05-06 21:05 | 51.64813 | 0.13870 | 19016 ft | 323 kts | 315° |
| 2026-05-06 21:06 | 51.66287 | 0.11056 | 19137 ft | 336 kts | 302° |
| 2026-05-06 21:06 | 51.67578 | 0.07823 | 19266 ft | 350 kts | 302° |
| 2026-05-06 21:06 | 51.68920 | 0.04461 | 19391 ft | 364 kts | 302° |
| 2026-05-06 21:06 | 51.70310 | 0.00982 | 19641 ft | 372 kts | 302° |
| 2026-05-06 21:07 | 51.71720 | -0.02540 | 20057 ft | 376 kts | 302° |
| 2026-05-06 21:07 | 51.73150 | -0.06103 | 20504 ft | 379 kts | 303° |
| 2026-05-06 21:07 | 51.74791 | -0.09449 | 20934 ft | 382 kts | 313° |
| 2026-05-06 21:07 | 51.76795 | -0.12287 | 21369 ft | 386 kts | 323° |
| 2026-05-06 21:08 | 51.79090 | -0.14590 | 21796 ft | 389 kts | 328° |
| 2026-05-06 21:08 | 51.81433 | -0.16805 | 22239 ft | 391 kts | 328° |
| 2026-05-06 21:08 | 51.83757 | -0.19010 | 22650 ft | 394 kts | 328° |
| 2026-05-06 21:08 | 51.86124 | -0.21264 | 23067 ft | 396 kts | 328° |
| 2026-05-06 21:09 | 51.88507 | -0.23546 | 23477 ft | 398 kts | 328° |
| 2026-05-06 21:09 | 51.90893 | -0.25836 | 23847 ft | 401 kts | 328° |
| 2026-05-06 21:09 | 51.93298 | -0.28142 | 24194 ft | 403 kts | 328° |
| 2026-05-06 21:09 | 51.95717 | -0.30458 | 24542 ft | 404 kts | 328° |
| 2026-05-06 21:10 | 51.98146 | -0.32783 | 24889 ft | 406 kts | 328° |
| 2026-05-06 21:10 | 52.00583 | -0.35125 | 25229 ft | 408 kts | 328° |
| 2026-05-06 21:10 | 52.03031 | -0.37479 | 25578 ft | 410 kts | 328° |
| 2026-05-06 21:10 | 52.05490 | -0.39847 | 25896 ft | 412 kts | 328° |
| 2026-05-06 21:11 | 52.07951 | -0.42225 | 26245 ft | 413 kts | 327° |
| 2026-05-06 21:11 | 52.10427 | -0.44619 | 26582 ft | 415 kts | 327° |
| 2026-05-06 21:11 | 52.12913 | -0.47021 | 26902 ft | 417 kts | 327° |
| 2026-05-06 21:11 | 52.15410 | -0.49437 | 27227 ft | 418 kts | 327° |
| 2026-05-06 21:12 | 52.17916 | -0.51869 | 27555 ft | 420 kts | 327° |
| 2026-05-06 21:12 | 52.20434 | -0.54315 | 27883 ft | 422 kts | 327° |
| 2026-05-06 21:12 | 52.22961 | -0.56772 | 28211 ft | 424 kts | 327° |
| 2026-05-06 21:12 | 52.25496 | -0.59234 | 28534 ft | 426 kts | 327° |
| 2026-05-06 21:13 | 52.28051 | -0.61719 | 28900 ft | 426 kts | 327° |
| 2026-05-06 21:13 | 52.30587 | -0.64196 | 29398 ft | 424 kts | 327° |
| 2026-05-06 21:13 | 52.33115 | -0.66673 | 29881 ft | 423 kts | 327° |
| 2026-05-06 21:13 | 52.35637 | -0.69143 | 30313 ft | 422 kts | 327° |
| 2026-05-06 21:14 | 52.38152 | -0.71606 | 30708 ft | 421 kts | 327° |
| 2026-05-06 21:14 | 52.40663 | -0.74066 | 31078 ft | 420 kts | 327° |
| 2026-05-06 21:14 | 52.43170 | -0.76526 | 31452 ft | 420 kts | 327° |
| 2026-05-06 21:14 | 52.45673 | -0.78988 | 31839 ft | 419 kts | 327° |
| 2026-05-06 21:15 | 52.48176 | -0.81455 | 32218 ft | 419 kts | 327° |
| 2026-05-06 21:15 | 52.50670 | -0.83918 | 32598 ft | 418 kts | 327° |
| 2026-05-06 21:15 | 52.53161 | -0.86378 | 32986 ft | 417 kts | 328° |
| 2026-05-06 21:15 | 52.55644 | -0.88835 | 33381 ft | 416 kts | 328° |
| 2026-05-06 21:16 | 52.58121 | -0.91291 | 33764 ft | 415 kts | 328° |
| 2026-05-06 21:16 | 52.60593 | -0.93745 | 34120 ft | 415 kts | 328° |
| 2026-05-06 21:16 | 52.62226 | -0.95364 | 34276 ft | 415 kts | 328° |
| 2026-05-06 21:16 | 52.64699 | -0.97816 | 34536 ft | 415 kts | 328° |
| 2026-05-06 21:17 | 52.67974 | -1.01072 | 34868 ft | 415 kts | 328° |
| 2026-05-06 21:17 | 52.70441 | -1.03538 | 35128 ft | 415 kts | 328° |
| 2026-05-06 21:17 | 52.72906 | -1.06008 | 35377 ft | 415 kts | 328° |
| 2026-05-06 21:17 | 52.75379 | -1.08486 | 35634 ft | 415 kts | 328° |
| 2026-05-06 21:18 | 52.77846 | -1.10962 | 35877 ft | 415 kts | 328° |
| 2026-05-06 21:18 | 52.79512 | -1.12635 | 36004 ft | 416 kts | 328° |
| 2026-05-06 21:18 | 52.81994 | -1.15127 | 36058 ft | 420 kts | 328° |
| 2026-05-06 21:19 | 52.87052 | -1.20213 | 36059 ft | 429 kts | 328° |
| 2026-05-06 21:19 | 52.92156 | -1.25358 | 36057 ft | 430 kts | 328° |
| 2026-05-06 21:20 | 52.97272 | -1.30530 | 36058 ft | 430 kts | 328° |
| 2026-05-06 21:20 | 53.02382 | -1.35709 | 36060 ft | 430 kts | 328° |
| 2026-05-06 21:21 | 53.07476 | -1.40888 | 36063 ft | 429 kts | 328° |
| 2026-05-06 21:21 | 53.12538 | -1.46041 | 36069 ft | 429 kts | 328° |
| 2026-05-06 21:22 | 53.17635 | -1.51256 | 36080 ft | 430 kts | 328° |
| 2026-05-06 21:22 | 53.22730 | -1.56485 | 36083 ft | 430 kts | 328° |
| 2026-05-06 21:23 | 53.27814 | -1.61727 | 36097 ft | 429 kts | 328° |
| 2026-05-06 21:23 | 53.32883 | -1.66965 | 36096 ft | 428 kts | 328° |
| 2026-05-06 21:24 | 53.37944 | -1.72195 | 36095 ft | 427 kts | 328° |
| 2026-05-06 21:24 | 53.42994 | -1.77437 | 36094 ft | 427 kts | 328° |
| 2026-05-06 21:25 | 53.48045 | -1.82688 | 36089 ft | 427 kts | 328° |
| 2026-05-06 21:25 | 53.53089 | -1.87946 | 36085 ft | 427 kts | 328° |
| 2026-05-06 21:26 | 53.58140 | -1.93219 | 36088 ft | 427 kts | 328° |
| 2026-05-06 21:26 | 53.63180 | -1.98497 | 36086 ft | 426 kts | 328° |
| 2026-05-06 21:27 | 53.68212 | -2.03796 | 36085 ft | 426 kts | 328° |
| 2026-05-06 21:27 | 53.73211 | -2.09075 | 36078 ft | 426 kts | 330° |
| 2026-05-06 21:28 | 53.78591 | -2.13185 | 36080 ft | 424 kts | 338° |
| 2026-05-06 21:28 | 53.84060 | -2.16901 | 36084 ft | 424 kts | 338° |
| 2026-05-06 21:29 | 53.89526 | -2.20640 | 36082 ft | 423 kts | 338° |
| 2026-05-06 21:29 | 53.94975 | -2.24395 | 36081 ft | 423 kts | 338° |
| 2026-05-06 21:30 | 54.00432 | -2.28152 | 36086 ft | 422 kts | 338° |
| 2026-05-06 21:30 | 54.05829 | -2.32063 | 36076 ft | 421 kts | 336° |
| 2026-05-06 21:31 | 54.11150 | -2.36228 | 36077 ft | 421 kts | 335° |
| 2026-05-06 21:31 | 54.16459 | -2.40416 | 36071 ft | 421 kts | 335° |
| 2026-05-06 21:32 | 54.21787 | -2.44582 | 36068 ft | 421 kts | 336° |
| 2026-05-06 21:32 | 54.29765 | -2.50789 | 36078 ft | 420 kts | 335° |
| 2026-05-06 21:33 | 54.35077 | -2.54937 | 36077 ft | 419 kts | 335° |
| 2026-05-06 21:33 | 54.40379 | -2.59104 | 36067 ft | 419 kts | 335° |
| 2026-05-06 21:34 | 54.45643 | -2.63252 | 36065 ft | 419 kts | 335° |
| 2026-05-06 21:34 | 54.50935 | -2.67440 | 36072 ft | 418 kts | 335° |
| 2026-05-06 21:35 | 54.56214 | -2.71625 | 36066 ft | 417 kts | 335° |
| 2026-05-06 21:35 | 54.61489 | -2.75808 | 36068 ft | 417 kts | 335° |
| 2026-05-06 21:36 | 54.66758 | -2.80011 | 36067 ft | 417 kts | 335° |
| 2026-05-06 21:36 | 54.72020 | -2.84215 | 36074 ft | 417 kts | 335° |
| 2026-05-06 21:37 | 54.77281 | -2.88420 | 36071 ft | 416 kts | 334° |
| 2026-05-06 21:37 | 54.82529 | -2.92633 | 36069 ft | 415 kts | 334° |
| 2026-05-06 21:38 | 54.87767 | -2.96848 | 36061 ft | 415 kts | 334° |
| 2026-05-06 21:38 | 54.92965 | -3.01048 | 36063 ft | 414 kts | 334° |
| 2026-05-06 21:39 | 54.98188 | -3.05293 | 36074 ft | 414 kts | 334° |
| 2026-05-06 21:39 | 55.03436 | -3.09559 | 36068 ft | 413 kts | 334° |
| 2026-05-06 21:40 | 55.08605 | -3.13761 | 36061 ft | 412 kts | 334° |
| 2026-05-06 21:40 | 55.13794 | -3.17997 | 36061 ft | 412 kts | 334° |
| 2026-05-06 21:41 | 55.18984 | -3.22252 | 36060 ft | 412 kts | 334° |
| 2026-05-06 21:41 | 55.24169 | -3.26520 | 36078 ft | 412 kts | 333° |
| 2026-05-06 21:42 | 55.29349 | -3.30788 | 36071 ft | 411 kts | 333° |
| 2026-05-06 21:42 | 55.34526 | -3.35058 | 36061 ft | 410 kts | 333° |
| 2026-05-06 21:43 | 55.39682 | -3.39331 | 36059 ft | 410 kts | 333° |
| 2026-05-06 21:43 | 55.44835 | -3.43623 | 36057 ft | 409 kts | 333° |
| 2026-05-06 21:44 | 55.49982 | -3.47918 | 36077 ft | 409 kts | 332° |
| 2026-05-06 21:44 | 55.55122 | -3.52219 | 36055 ft | 408 kts | 332° |
| 2026-05-06 21:45 | 55.60253 | -3.56517 | 36054 ft | 408 kts | 332° |
| 2026-05-06 21:45 | 55.65369 | -3.60831 | 36040 ft | 407 kts | 332° |
| 2026-05-06 21:46 | 55.70449 | -3.65125 | 36046 ft | 407 kts | 332° |
| 2026-05-06 21:46 | 55.75591 | -3.69483 | 36054 ft | 407 kts | 331° |
| 2026-05-06 21:47 | 55.80669 | -3.73796 | 36049 ft | 407 kts | 331° |
| 2026-05-06 21:47 | 55.85782 | -3.78139 | 36050 ft | 407 kts | 332° |
| 2026-05-06 21:48 | 55.90892 | -3.82487 | 36046 ft | 407 kts | 331° |
| 2026-05-06 21:48 | 55.95997 | -3.86861 | 36034 ft | 407 kts | 331° |
| 2026-05-06 21:49 | 56.01100 | -3.91246 | 36044 ft | 407 kts | 331° |
| 2026-05-06 21:49 | 56.06200 | -3.95638 | 36032 ft | 407 kts | 331° |
| 2026-05-06 21:50 | 56.11301 | -4.00040 | 36019 ft | 407 kts | 331° |
| 2026-05-06 21:50 | 56.16410 | -4.04464 | 36020 ft | 408 kts | 331° |
| 2026-05-06 21:51 | 56.21522 | -4.08902 | 36026 ft | 409 kts | 331° |
| 2026-05-06 21:51 | 56.26646 | -4.13369 | 36048 ft | 409 kts | 330° |
| 2026-05-06 21:52 | 56.31726 | -4.17817 | 36034 ft | 408 kts | 330° |
| 2026-05-06 21:52 | 56.36841 | -4.22304 | 36030 ft | 408 kts | 330° |
| 2026-05-06 21:53 | 56.41951 | -4.26787 | 36030 ft | 408 kts | 330° |
| 2026-05-06 21:53 | 56.47039 | -4.31342 | 36031 ft | 407 kts | 328° |
| 2026-05-06 21:54 | 56.51945 | -4.36404 | 36046 ft | 406 kts | 325° |
| 2026-05-06 21:54 | 56.56759 | -4.41754 | 36022 ft | 405 kts | 324° |
| 2026-05-06 21:55 | 56.61576 | -4.47071 | 36020 ft | 406 kts | 325° |
| 2026-05-06 21:55 | 56.66424 | -4.52333 | 36012 ft | 406 kts | 326° |
| 2026-05-06 21:56 | 56.71276 | -4.57587 | 36008 ft | 406 kts | 326° |
| 2026-05-06 21:56 | 56.76128 | -4.62844 | 36034 ft | 406 kts | 325° |
| 2026-05-06 21:57 | 56.80969 | -4.68128 | 36004 ft | 405 kts | 325° |
| 2026-05-06 21:57 | 56.85771 | -4.73389 | 35990 ft | 406 kts | 325° |
| 2026-05-06 21:58 | 56.90612 | -4.78722 | 35967 ft | 406 kts | 325° |
| 2026-05-06 21:58 | 56.95458 | -4.84060 | 35970 ft | 407 kts | 325° |
| 2026-05-06 21:59 | 57.00307 | -4.89414 | 35964 ft | 407 kts | 324° |
| 2026-05-06 21:59 | 57.05155 | -4.94783 | 35988 ft | 407 kts | 324° |
| 2026-05-06 22:00 | 57.10001 | -5.00169 | 35978 ft | 407 kts | 324° |
| 2026-05-06 22:00 | 57.14842 | -5.05576 | 35972 ft | 407 kts | 324° |
| 2026-05-06 22:01 | 57.19679 | -5.11000 | 35971 ft | 407 kts | 324° |
| 2026-05-06 22:01 | 57.24517 | -5.16433 | 35966 ft | 407 kts | 324° |
| 2026-05-06 22:02 | 57.29364 | -5.21884 | 35989 ft | 408 kts | 324° |
| 2026-05-06 22:02 | 57.34208 | -5.27350 | 35974 ft | 408 kts | 324° |
| 2026-05-06 22:03 | 57.39048 | -5.32828 | 35971 ft | 408 kts | 324° |
| 2026-05-06 22:03 | 57.43882 | -5.38336 | 35968 ft | 408 kts | 323° |
| 2026-05-06 22:04 | 57.48715 | -5.43863 | 35947 ft | 408 kts | 323° |
| 2026-05-06 22:04 | 57.53523 | -5.49356 | 35986 ft | 409 kts | 323° |
| 2026-05-06 22:05 | 57.58373 | -5.54902 | 35967 ft | 409 kts | 323° |
| 2026-05-06 22:05 | 57.63218 | -5.60460 | 35958 ft | 409 kts | 323° |
| 2026-05-06 22:06 | 57.67269 | -5.65130 | 35955 ft | 408 kts | 323° |
| 2026-05-06 22:06 | 57.72092 | -5.70731 | 35953 ft | 408 kts | 323° |
| 2026-05-06 22:07 | 57.76897 | -5.76314 | 35949 ft | 408 kts | 323° |
| 2026-05-06 22:07 | 57.81724 | -5.81929 | 35953 ft | 407 kts | 323° |
| 2026-05-06 22:08 | 57.86523 | -5.87540 | 35944 ft | 406 kts | 322° |
| 2026-05-06 22:08 | 57.91310 | -5.93161 | 35939 ft | 406 kts | 322° |
| 2026-05-06 22:09 | 57.96104 | -5.98798 | 35942 ft | 406 kts | 322° |
| 2026-05-06 22:09 | 58.00900 | -6.04450 | 35939 ft | 406 kts | 322° |
| 2026-05-06 22:10 | 58.05692 | -6.10118 | 35973 ft | 406 kts | 322° |
| 2026-05-06 22:10 | 58.10469 | -6.15800 | 35944 ft | 405 kts | 322° |
| 2026-05-06 22:11 | 58.15242 | -6.21496 | 35928 ft | 406 kts | 322° |
| 2026-05-06 22:11 | 58.20027 | -6.27216 | 35922 ft | 407 kts | 322° |
| 2026-05-06 22:12 | 58.24823 | -6.32951 | 35926 ft | 408 kts | 322° |
| 2026-05-06 22:12 | 58.29619 | -6.38720 | 35930 ft | 408 kts | 322° |
| 2026-05-06 22:13 | 58.34332 | -6.44415 | 35947 ft | 408 kts | 322° |
| 2026-05-06 22:13 | 58.39117 | -6.50212 | 35936 ft | 407 kts | 321° |
| 2026-05-06 22:14 | 58.43891 | -6.56021 | 35931 ft | 407 kts | 321° |
| 2026-05-06 22:14 | 58.48668 | -6.61850 | 35929 ft | 407 kts | 321° |
| 2026-05-06 22:15 | 58.53441 | -6.67680 | 35928 ft | 407 kts | 321° |
| 2026-05-06 22:15 | 58.58215 | -6.73528 | 35928 ft | 407 kts | 321° |
| 2026-05-06 22:16 | 58.62979 | -6.79400 | 35922 ft | 407 kts | 321° |
| 2026-05-06 22:16 | 58.67739 | -6.85294 | 35920 ft | 407 kts | 321° |
| 2026-05-06 22:17 | 58.72495 | -6.91188 | 35920 ft | 407 kts | 321° |
| 2026-05-06 22:17 | 58.77262 | -6.97101 | 35921 ft | 407 kts | 321° |
| 2026-05-06 22:18 | 58.81986 | -7.02990 | 35921 ft | 407 kts | 321° |
| 2026-05-06 22:18 | 58.86739 | -7.08941 | 35924 ft | 405 kts | 321° |
| 2026-05-06 22:19 | 58.91453 | -7.14859 | 35902 ft | 404 kts | 321° |
| 2026-05-06 22:19 | 58.96177 | -7.20804 | 35903 ft | 405 kts | 321° |
| 2026-05-06 22:20 | 59.00891 | -7.26762 | 35910 ft | 405 kts | 320° |
| 2026-05-06 22:20 | 59.05609 | -7.32752 | 35904 ft | 405 kts | 320° |
| 2026-05-06 22:21 | 59.10328 | -7.38754 | 35904 ft | 405 kts | 320° |
| 2026-05-06 22:21 | 59.15039 | -7.44764 | 35896 ft | 403 kts | 320° |
| 2026-05-06 22:22 | 59.19723 | -7.50765 | 35892 ft | 403 kts | 320° |
| 2026-05-06 22:22 | 59.24412 | -7.56797 | 35893 ft | 404 kts | 320° |
| 2026-05-06 22:23 | 59.29103 | -7.62847 | 35889 ft | 404 kts | 320° |
| 2026-05-06 22:23 | 59.33767 | -7.68883 | 35891 ft | 404 kts | 320° |
| 2026-05-06 22:24 | 59.38476 | -7.75013 | 35905 ft | 404 kts | 320° |
| 2026-05-06 22:24 | 59.43139 | -7.81094 | 35868 ft | 402 kts | 319° |
| 2026-05-06 22:25 | 59.47780 | -7.87155 | 35864 ft | 404 kts | 319° |
| 2026-05-06 22:25 | 59.52465 | -7.93281 | 35869 ft | 405 kts | 319° |
| 2026-05-06 22:26 | 59.57157 | -7.99445 | 35872 ft | 405 kts | 319° |
| 2026-05-06 22:26 | 59.61843 | -8.05637 | 35879 ft | 405 kts | 319° |
| 2026-05-06 22:27 | 59.66523 | -8.11862 | 35910 ft | 406 kts | 319° |
| 2026-05-06 22:27 | 59.71213 | -8.18096 | 35890 ft | 406 kts | 319° |
| 2026-05-06 22:28 | 59.75902 | -8.24336 | 35881 ft | 406 kts | 319° |
| 2026-05-06 22:28 | 59.80598 | -8.30614 | 35880 ft | 406 kts | 319° |
| 2026-05-06 22:29 | 59.85281 | -8.36908 | 35879 ft | 406 kts | 319° |
| 2026-05-06 22:29 | 59.89965 | -8.43218 | 35878 ft | 406 kts | 319° |
| 2026-05-06 22:30 | 59.94660 | -8.49568 | 35861 ft | 408 kts | 319° |
| 2026-05-06 22:30 | 59.99365 | -8.55953 | 35857 ft | 409 kts | 319° |
| 2026-05-06 22:31 | 60.04076 | -8.62371 | 35860 ft | 410 kts | 319° |
| 2026-05-06 22:31 | 60.08791 | -8.68813 | 35850 ft | 410 kts | 319° |
| 2026-05-06 22:32 | 60.13477 | -8.75245 | 35857 ft | 411 kts | 319° |
| 2026-05-06 22:32 | 60.18192 | -8.81758 | 35892 ft | 412 kts | 320° |
| 2026-05-06 22:33 | 60.22926 | -8.88300 | 35862 ft | 414 kts | 320° |
| 2026-05-06 22:33 | 60.27679 | -8.94871 | 35847 ft | 415 kts | 320° |
| 2026-05-06 22:34 | 60.32440 | -9.01477 | 35846 ft | 416 kts | 320° |
| 2026-05-06 22:34 | 60.37203 | -9.08119 | 35866 ft | 416 kts | 320° |
| 2026-05-06 22:35 | 60.41963 | -9.14790 | 35866 ft | 416 kts | 320° |
| 2026-05-06 22:35 | 60.46729 | -9.21499 | 35864 ft | 417 kts | 320° |
| 2026-05-06 22:36 | 60.51494 | -9.28235 | 35850 ft | 418 kts | 320° |
| 2026-05-06 22:36 | 60.56273 | -9.35011 | 35855 ft | 419 kts | 320° |
| 2026-05-06 22:37 | 60.61060 | -9.41823 | 35854 ft | 419 kts | 320° |
| 2026-05-06 22:37 | 60.65798 | -9.48743 | 35872 ft | 419 kts | 319° |
| 2026-05-06 22:38 | 60.70516 | -9.55774 | 35905 ft | 420 kts | 320° |
| 2026-05-06 22:38 | 60.75234 | -9.62817 | 35861 ft | 421 kts | 319° |
| 2026-05-06 22:39 | 60.79979 | -9.69890 | 35865 ft | 422 kts | 319° |
| 2026-05-06 22:39 | 60.84733 | -9.76986 | 35869 ft | 423 kts | 319° |
| 2026-05-06 22:40 | 60.89491 | -9.84106 | 35882 ft | 423 kts | 319° |
| 2026-05-06 22:40 | 60.94243 | -9.91263 | 35884 ft | 423 kts | 319° |
| 2026-05-06 22:41 | 61.01202 | -10.02445 | 35893 ft | 421 kts | 311° |
| 2026-05-06 22:42 | 61.05337 | -10.10906 | 35873 ft | 422 kts | 311° |
| 2026-05-06 22:42 | 61.09504 | -10.19471 | 35877 ft | 423 kts | 311° |
| 2026-05-06 22:43 | 61.13700 | -10.28151 | 35886 ft | 424 kts | 311° |
| 2026-05-06 22:43 | 61.17837 | -10.36746 | 35890 ft | 424 kts | 311° |
| 2026-05-06 22:44 | 61.22003 | -10.45422 | 35899 ft | 424 kts | 311° |
| 2026-05-06 22:44 | 61.26160 | -10.54136 | 35890 ft | 425 kts | 310° |
| 2026-05-06 22:45 | 61.30310 | -10.62870 | 35908 ft | 424 kts | 310° |
| 2026-05-06 22:45 | 61.34459 | -10.71593 | 35907 ft | 423 kts | 310° |
| 2026-05-06 22:46 | 61.38602 | -10.80329 | 35903 ft | 424 kts | 311° |
| 2026-05-06 22:46 | 61.42732 | -10.89116 | 35899 ft | 424 kts | 310° |
| 2026-05-06 22:47 | 61.46855 | -10.97934 | 35906 ft | 424 kts | 310° |
| 2026-05-06 22:47 | 61.50973 | -11.06761 | 35911 ft | 424 kts | 310° |
| 2026-05-06 22:48 | 61.55103 | -11.15637 | 35909 ft | 425 kts | 310° |
| 2026-05-06 22:48 | 61.59231 | -11.24540 | 35908 ft | 427 kts | 311° |
| 2026-05-06 22:49 | 61.63370 | -11.33499 | 35916 ft | 427 kts | 310° |
| 2026-05-06 22:49 | 61.66800 | -11.40964 | 35919 ft | 427 kts | 310° |
| 2026-05-06 22:50 | 61.70917 | -11.49962 | 35925 ft | 426 kts | 310° |
| 2026-05-06 22:50 | 61.75016 | -11.59002 | 35940 ft | 426 kts | 311° |
| 2026-05-06 22:51 | 61.79123 | -11.68052 | 35922 ft | 428 kts | 311° |
| 2026-05-06 22:51 | 61.83248 | -11.77157 | 35935 ft | 428 kts | 310° |
| 2026-05-06 22:52 | 61.87351 | -11.86266 | 35951 ft | 427 kts | 310° |
| 2026-05-06 22:52 | 61.91445 | -11.95404 | 35949 ft | 427 kts | 310° |
| 2026-05-06 22:53 | 61.95533 | -12.04561 | 35930 ft | 428 kts | 311° |
| 2026-05-06 22:53 | 61.99625 | -12.13763 | 35992 ft | 428 kts | 309° |
| 2026-05-06 22:54 | 62.03712 | -12.22993 | 35968 ft | 428 kts | 310° |
| 2026-05-06 22:54 | 62.07788 | -12.32231 | 35966 ft | 427 kts | 311° |
| 2026-05-06 22:55 | 62.11851 | -12.41487 | 35966 ft | 427 kts | 310° |
| 2026-05-06 22:55 | 62.15890 | -12.50749 | 35948 ft | 430 kts | 311° |
| 2026-05-06 22:56 | 62.19968 | -12.60117 | 35983 ft | 430 kts | 309° |
| 2026-05-06 22:56 | 62.24051 | -12.69489 | 35996 ft | 430 kts | 310° |
| 2026-05-06 22:57 | 62.28110 | -12.78899 | 35993 ft | 429 kts | 311° |
| 2026-05-06 22:57 | 62.32157 | -12.88340 | 35999 ft | 429 kts | 311° |
| 2026-05-06 22:58 | 62.36208 | -12.97813 | 35990 ft | 431 kts | 310° |
| 2026-05-06 22:58 | 62.40263 | -13.07330 | 36013 ft | 431 kts | 310° |
| 2026-05-06 22:59 | 62.44306 | -13.16840 | 36034 ft | 429 kts | 310° |
| 2026-05-06 22:59 | 62.48333 | -13.26368 | 36021 ft | 429 kts | 310° |
| 2026-05-06 23:00 | 62.52359 | -13.35939 | 36019 ft | 431 kts | 311° |
| 2026-05-06 23:00 | 62.56400 | -13.45563 | 36028 ft | 432 kts | 310° |
| 2026-05-06 23:01 | 62.60429 | -13.55222 | 36049 ft | 432 kts | 310° |
| 2026-05-06 23:01 | 62.64445 | -13.64913 | 36057 ft | 431 kts | 311° |
| 2026-05-06 23:02 | 62.68464 | -13.74624 | 36047 ft | 431 kts | 310° |
| 2026-05-06 23:02 | 62.72476 | -13.84374 | 36038 ft | 433 kts | 310° |
| 2026-05-06 23:03 | 62.76487 | -13.94164 | 36065 ft | 433 kts | 311° |
| 2026-05-06 23:03 | 62.80491 | -14.03985 | 36085 ft | 432 kts | 310° |
| 2026-05-06 23:04 | 62.84463 | -14.13749 | 36079 ft | 432 kts | 311° |
| 2026-05-06 23:04 | 62.88469 | -14.23649 | 36069 ft | 432 kts | 311° |
| 2026-05-06 23:05 | 62.92416 | -14.33478 | 36063 ft | 433 kts | 311° |
| 2026-05-06 23:05 | 62.96400 | -14.43418 | 36071 ft | 433 kts | 311° |
| 2026-05-06 23:06 | 63.00369 | -14.53382 | 36110 ft | 432 kts | 311° |
| 2026-05-06 23:06 | 63.04321 | -14.63328 | 36107 ft | 432 kts | 311° |
| 2026-05-06 23:07 | 63.08273 | -14.73306 | 36100 ft | 432 kts | 311° |
| 2026-05-06 23:07 | 63.12223 | -14.83349 | 36105 ft | 433 kts | 311° |
| 2026-05-06 23:08 | 63.16170 | -14.93436 | 36113 ft | 433 kts | 311° |
| 2026-05-06 23:08 | 63.20116 | -15.03525 | 36133 ft | 433 kts | 311° |
| 2026-05-06 23:09 | 63.24039 | -15.13617 | 36134 ft | 432 kts | 310° |
| 2026-05-06 23:09 | 63.27951 | -15.23739 | 36138 ft | 432 kts | 311° |
| 2026-05-06 23:10 | 63.31862 | -15.33905 | 36126 ft | 433 kts | 310° |
| 2026-05-06 23:10 | 63.35751 | -15.44055 | 36136 ft | 433 kts | 310° |
| 2026-05-06 23:11 | 63.39656 | -15.54303 | 36155 ft | 433 kts | 311° |
| 2026-05-06 23:11 | 63.43553 | -15.64539 | 36162 ft | 433 kts | 310° |
| 2026-05-06 23:12 | 63.47449 | -15.74847 | 36157 ft | 434 kts | 310° |
| 2026-05-06 23:12 | 63.51338 | -15.85186 | 36160 ft | 435 kts | 310° |
| 2026-05-06 23:13 | 63.55230 | -15.95576 | 36172 ft | 435 kts | 311° |
| 2026-05-06 23:13 | 63.59108 | -16.05995 | 36181 ft | 435 kts | 310° |
| 2026-05-06 23:14 | 63.62967 | -16.16403 | 36190 ft | 433 kts | 310° |
| 2026-05-06 23:14 | 63.66817 | -16.26831 | 36177 ft | 433 kts | 310° |
| 2026-05-06 23:15 | 63.70666 | -16.37304 | 36175 ft | 434 kts | 310° |
| 2026-05-06 23:15 | 63.74506 | -16.47809 | 36176 ft | 434 kts | 310° |
| 2026-05-06 23:16 | 63.78242 | -16.58496 | 36191 ft | 434 kts | 303° |
| 2026-05-06 23:16 | 63.80567 | -16.71004 | 36180 ft | 438 kts | 284° |
| 2026-05-06 23:17 | 63.81363 | -16.84696 | 36183 ft | 439 kts | 277° |
| 2026-05-06 23:17 | 63.82060 | -16.98453 | 36190 ft | 439 kts | 278° |
| 2026-05-06 23:18 | 63.82741 | -17.12170 | 36192 ft | 439 kts | 277° |
| 2026-05-06 23:18 | 63.83399 | -17.25929 | 36183 ft | 439 kts | 278° |
| 2026-05-06 23:19 | 63.84041 | -17.39692 | 36176 ft | 439 kts | 278° |
| 2026-05-06 23:19 | 63.84674 | -17.53468 | 36176 ft | 440 kts | 277° |
| 2026-05-06 23:20 | 63.85294 | -17.67267 | 36176 ft | 441 kts | 277° |
| 2026-05-06 23:20 | 63.85901 | -17.81095 | 36190 ft | 440 kts | 277° |
| 2026-05-06 23:21 | 63.86402 | -17.92789 | 36192 ft | 441 kts | 277° |
| 2026-05-06 23:21 | 63.86986 | -18.06629 | 36204 ft | 441 kts | 277° |
| 2026-05-06 23:22 | 63.87559 | -18.20466 | 35552 ft | 440 kts | 277° |
| 2026-05-06 23:22 | 63.87840 | -18.27368 | 35028 ft | 439 kts | 277° |
| 2026-05-06 23:22 | 63.88117 | -18.34258 | 34596 ft | 437 kts | 276° |
| 2026-05-06 23:22 | 63.88385 | -18.41103 | 34200 ft | 433 kts | 276° |
| 2026-05-06 23:23 | 63.88645 | -18.47894 | 33732 ft | 430 kts | 276° |
| 2026-05-06 23:23 | 63.88901 | -18.54619 | 33270 ft | 426 kts | 276° |
| 2026-05-06 23:23 | 63.89152 | -18.61294 | 32814 ft | 422 kts | 277° |
| 2026-05-06 23:23 | 63.89402 | -18.67905 | 32371 ft | 419 kts | 277° |
| 2026-05-06 23:24 | 63.89646 | -18.74457 | 31950 ft | 415 kts | 277° |
| 2026-05-06 23:24 | 63.89886 | -18.80962 | 31513 ft | 411 kts | 277° |
| 2026-05-06 23:24 | 63.90119 | -18.87327 | 31106 ft | 408 kts | 277° |
| 2026-05-06 23:24 | 63.90353 | -18.93795 | 30680 ft | 404 kts | 277° |
| 2026-05-06 23:25 | 63.90579 | -19.00144 | 30262 ft | 401 kts | 277° |
| 2026-05-06 23:25 | 63.90793 | -19.06353 | 29784 ft | 398 kts | 277° |
| 2026-05-06 23:25 | 63.91007 | -19.12596 | 29314 ft | 395 kts | 277° |
| 2026-05-06 23:25 | 63.91216 | -19.18813 | 28847 ft | 391 kts | 277° |
| 2026-05-06 23:26 | 63.91422 | -19.24945 | 28392 ft | 389 kts | 277° |
| 2026-05-06 23:26 | 63.91625 | -19.31051 | 27935 ft | 386 kts | 277° |
| 2026-05-06 23:26 | 63.91824 | -19.37121 | 27515 ft | 384 kts | 277° |
| 2026-05-06 23:26 | 63.92021 | -19.43137 | 27079 ft | 381 kts | 277° |
| 2026-05-06 23:27 | 63.92214 | -19.49130 | 26656 ft | 379 kts | 277° |
| 2026-05-06 23:27 | 63.92401 | -19.55082 | 26242 ft | 376 kts | 277° |
| 2026-05-06 23:27 | 63.92584 | -19.61005 | 25818 ft | 374 kts | 277° |
| 2026-05-06 23:27 | 63.92763 | -19.66883 | 25395 ft | 372 kts | 277° |
| 2026-05-06 23:28 | 63.92940 | -19.72741 | 24989 ft | 370 kts | 277° |
| 2026-05-06 23:28 | 63.93114 | -19.78555 | 24569 ft | 368 kts | 277° |
| 2026-05-06 23:28 | 63.93285 | -19.84340 | 24162 ft | 366 kts | 277° |
| 2026-05-06 23:28 | 63.93453 | -19.90095 | 23744 ft | 363 kts | 278° |
| 2026-05-06 23:29 | 63.93615 | -19.95789 | 23297 ft | 360 kts | 277° |
| 2026-05-06 23:29 | 63.93772 | -20.01415 | 22687 ft | 354 kts | 277° |
| 2026-05-06 23:29 | 63.93926 | -20.06973 | 21887 ft | 350 kts | 277° |
| 2026-05-06 23:29 | 63.94074 | -20.12472 | 21208 ft | 347 kts | 277° |
| 2026-05-06 23:30 | 63.94216 | -20.17933 | 20776 ft | 345 kts | 277° |
| 2026-05-06 23:30 | 63.94356 | -20.23347 | 20365 ft | 342 kts | 277° |
| 2026-05-06 23:30 | 63.94496 | -20.28668 | 19970 ft | 340 kts | 277° |
| 2026-05-06 23:30 | 63.94599 | -20.34032 | 19561 ft | 340 kts | 272° |
| 2026-05-06 23:31 | 63.94342 | -20.39387 | 19155 ft | 341 kts | 264° |
| 2026-05-06 23:31 | 63.93957 | -20.44701 | 18741 ft | 340 kts | 264° |
| 2026-05-06 23:31 | 63.93573 | -20.50000 | 18306 ft | 340 kts | 264° |
| 2026-05-06 23:31 | 63.93188 | -20.55282 | 17889 ft | 337 kts | 264° |
| 2026-05-06 23:32 | 63.92806 | -20.60541 | 17474 ft | 335 kts | 264° |
| 2026-05-06 23:32 | 63.92425 | -20.65741 | 17073 ft | 333 kts | 264° |
| 2026-05-06 23:32 | 63.92042 | -20.70912 | 16675 ft | 331 kts | 264° |
| 2026-05-06 23:32 | 63.91660 | -20.76054 | 16259 ft | 329 kts | 263° |
| 2026-05-06 23:33 | 63.91278 | -20.81163 | 15876 ft | 327 kts | 264° |
| 2026-05-06 23:33 | 63.90896 | -20.86245 | 15484 ft | 326 kts | 264° |
| 2026-05-06 23:33 | 63.90514 | -20.91311 | 15091 ft | 325 kts | 263° |
| 2026-05-06 23:33 | 63.90129 | -20.96359 | 14698 ft | 324 kts | 263° |
| 2026-05-06 23:34 | 63.89743 | -21.01400 | 14310 ft | 324 kts | 263° |
| 2026-05-06 23:34 | 63.89355 | -21.06432 | 13907 ft | 323 kts | 263° |
| 2026-05-06 23:34 | 63.88966 | -21.11454 | 13503 ft | 322 kts | 263° |
| 2026-05-06 23:34 | 63.88576 | -21.16447 | 13119 ft | 320 kts | 263° |
| 2026-05-06 23:35 | 63.88322 | -21.19718 | 12962 ft | 317 kts | 262° |
| 2026-05-06 23:35 | 63.87941 | -21.24645 | 12713 ft | 317 kts | 263° |
| 2026-05-06 23:35 | 63.87562 | -21.29553 | 12446 ft | 315 kts | 263° |
| 2026-05-06 23:35 | 63.87059 | -21.36026 | 12094 ft | 314 kts | 262° |
| 2026-05-06 23:36 | 63.86674 | -21.40889 | 11842 ft | 313 kts | 263° |
| 2026-05-06 23:36 | 63.86285 | -21.45740 | 11587 ft | 313 kts | 262° |
| 2026-05-06 23:36 | 63.85894 | -21.50582 | 11322 ft | 311 kts | 262° |
| 2026-05-06 23:36 | 63.85632 | -21.53838 | 11139 ft | 310 kts | 262° |
| 2026-05-06 23:37 | 63.85251 | -21.58537 | 10867 ft | 305 kts | 262° |
| 2026-05-06 23:37 | 63.84866 | -21.63268 | 10530 ft | 304 kts | 262° |
| 2026-05-06 23:37 | 63.84486 | -21.67961 | 10165 ft | 304 kts | 262° |
| 2026-05-06 23:37 | 63.84103 | -21.72669 | 9830 ft | 301 kts | 262° |
| 2026-05-06 23:38 | 63.83725 | -21.77305 | 9493 ft | 299 kts | 262° |
| 2026-05-06 23:38 | 63.83349 | -21.81924 | 9197 ft | 296 kts | 262° |
| 2026-05-06 23:38 | 63.82977 | -21.86484 | 8859 ft | 294 kts | 262° |
| 2026-05-06 23:38 | 63.82601 | -21.91019 | 8544 ft | 292 kts | 262° |
| 2026-05-06 23:39 | 63.82220 | -21.95518 | 8232 ft | 290 kts | 262° |
| 2026-05-06 23:39 | 63.81839 | -21.99990 | 7917 ft | 288 kts | 262° |
| 2026-05-06 23:39 | 63.81462 | -22.04421 | 7605 ft | 286 kts | 261° |
| 2026-05-06 23:39 | 63.81088 | -22.08827 | 7296 ft | 284 kts | 261° |
| 2026-05-06 23:40 | 63.80531 | -22.13147 | 6760 ft | 292 kts | 253° |
| 2026-05-06 23:40 | 63.79889 | -22.17484 | 6491 ft | 288 kts | 253° |
| 2026-05-06 23:40 | 63.79240 | -22.21746 | 6141 ft | 286 kts | 252° |
| 2026-05-06 23:40 | 63.78594 | -22.25974 | 5828 ft | 284 kts | 252° |
| 2026-05-06 23:41 | 63.77958 | -22.30149 | 5644 ft | 276 kts | 253° |
| 2026-05-06 23:41 | 63.77355 | -22.34199 | 5505 ft | 266 kts | 259° |
| 2026-05-06 23:41 | 63.77134 | -22.38238 | 5350 ft | 254 kts | 275° |
| 2026-05-06 23:41 | 63.77415 | -22.42084 | 5084 ft | 244 kts | 294° |
| 2026-05-06 23:42 | 63.78001 | -22.45667 | 4744 ft | 243 kts | 296° |
| 2026-05-06 23:42 | 63.78588 | -22.49267 | 4376 ft | 245 kts | 296° |
| 2026-05-06 23:42 | 63.79166 | -22.52848 | 4116 ft | 242 kts | 296° |
| 2026-05-06 23:42 | 63.79893 | -22.56150 | 3790 ft | 234 kts | 311° |
| 2026-05-06 23:43 | 63.81047 | -22.58702 | 3368 ft | 231 kts | 332° |
| 2026-05-06 23:43 | 63.82465 | -22.60178 | 3074 ft | 217 kts | 349° |
| 2026-05-06 23:43 | 63.83887 | -22.60557 | 2796 ft | 197 kts | 4° |
| 2026-05-06 23:43 | 63.85215 | -22.60556 | 2536 ft | 183 kts | 5° |
| 2026-05-06 23:44 | 63.86426 | -22.60558 | 2273 ft | 166 kts | 4° |
| 2026-05-06 23:44 | 63.87525 | -22.60558 | 2040 ft | 151 kts | 5° |
| 2026-05-06 23:44 | 63.88538 | -22.60557 | 1833 ft | 140 kts | 5° |
| 2026-05-06 23:44 | 63.89482 | -22.60555 | 1642 ft | 133 kts | 6° |
| 2026-05-06 23:45 | 63.90378 | -22.60553 | 1455 ft | 129 kts | 4° |
| 2026-05-06 23:45 | 63.91277 | -22.60551 | 1274 ft | 128 kts | 5° |
| 2026-05-06 23:45 | 63.92176 | -22.60549 | 1076 ft | 128 kts | 5° |
| 2026-05-06 23:45 | 63.93061 | -22.60548 | 882 ft | 127 kts | 6° |
| 2026-05-06 23:46 | 63.93953 | -22.60547 | 695 ft | 129 kts | 5° |
| 2026-05-06 23:46 | 63.94838 | -22.60547 | 519 ft | 127 kts | 4° |
| 2026-05-06 23:46 | 63.95732 | -22.60558 | 366 ft | 128 kts | 3° |
| 2026-05-06 23:46 | 63.96636 | -22.60563 | 199 ft | 130 kts | 5° |
| 2026-05-06 23:47 | 63.97459 | -22.60521 | 172 ft | 101 kts | 359° |
| 2026-05-06 23:47 | 63.98046 | -22.60515 | 171 ft | 67 kts | 1° |
| 2026-05-06 23:47 | 63.98411 | -22.60524 | 174 ft | 41 kts | 359° |
| 2026-05-06 23:47 | 63.98648 | -22.60540 | 176 ft | 32 kts | 358° |
| 2026-05-06 23:48 | 63.98831 | -22.60631 | 176 ft | 22 kts | 309° |
| 2026-05-06 23:48 | 63.98925 | -22.60890 | 171 ft | 16 kts | 312° |
| 2026-05-06 23:48 | 63.99014 | -22.60940 | 171 ft | 14 kts | 2° |
| 2026-05-06 23:48 | 63.99130 | -22.60934 | 166 ft | 19 kts | 356° |
| 2026-05-06 23:49 | 63.99174 | -22.61190 | 159 ft | 22 kts | 269° |
| 2026-05-06 23:49 | 63.99174 | -22.61598 | 150 ft | 29 kts | 271° |
| 2026-05-06 23:49 | 63.99179 | -22.61938 | 143 ft | 17 kts | 292° |
| 2026-05-06 23:49 | 63.99277 | -22.61985 | 143 ft | 13 kts | 6° |
| 2026-05-06 23:50 | 63.99328 | -22.62040 | 141 ft | 9 kts | 270° |
| 2026-05-06 23:50 | 63.99327 | -22.62163 | 143 ft | 0 kts | 270° |
| 2026-05-06 23:54 | 63.91922 | -19.40111 | 27300 ft | 382 kts | 277° |
| 2026-05-06 23:54 | 63.92118 | -19.46120 | 26881 ft | 380 kts | 277° |
| 2026-05-06 23:54 | 63.92305 | -19.52007 | 24831 ft | 378 kts | 277° |
| 2026-05-06 23:55 | 63.92490 | -19.57945 | 26124 ft | 375 kts | 277° |
| 2026-05-06 23:55 | 63.92671 | -19.63849 | 25605 ft | 373 kts | 277° |
| 2026-05-06 23:55 | 63.92848 | -19.69720 | 25190 ft | 371 kts | 277° |
| 2026-05-06 23:55 | 63.93024 | -19.75548 | 23192 ft | 369 kts | 277° |
| 2026-05-06 23:56 | 63.93197 | -19.81344 | 22776 ft | 367 kts | 277° |
| 2026-05-06 23:56 | 63.93367 | -19.87123 | 22359 ft | 365 kts | 277° |
| 2026-05-06 23:56 | 63.93532 | -19.92844 | 23767 ft | 362 kts | 277° |
| 2026-05-06 23:56 | 63.93691 | -19.98515 | 21577 ft | 357 kts | 277° |
| 2026-05-06 23:57 | 63.93846 | -20.04102 | 20902 ft | 352 kts | 277° |
| 2026-05-06 23:57 | 63.93998 | -20.09635 | 20223 ft | 349 kts | 277° |
| 2026-05-06 23:57 | 63.94143 | -20.15108 | 19717 ft | 346 kts | 277° |
| 2026-05-06 23:57 | 63.94284 | -20.20555 | 19328 ft | 343 kts | 277° |
| 2026-05-06 23:58 | 63.94425 | -20.25959 | 18935 ft | 341 kts | 277° |
| 2026-05-06 23:58 | 63.94566 | -20.31327 | 18538 ft | 339 kts | 277° |
| 2026-05-06 23:58 | 63.94521 | -20.36693 | 18145 ft | 341 kts | 266° |
| 2026-05-06 23:58 | 63.94152 | -20.42017 | 17728 ft | 341 kts | 264° |
| 2026-05-06 23:59 | 63.93771 | -20.47269 | 17313 ft | 340 kts | 264° |
| 2026-05-06 23:59 | 63.93387 | -20.52549 | 16914 ft | 339 kts | 264° |
| 2026-05-06 23:59 | 63.80765 | -22.58234 | 3190 ft | 233 kts | 327° |
| 2026-05-06 23:59 | 63.82148 | -22.59954 | 2911 ft | 221 kts | 345° |
| 2026-05-07 00:00 | 63.83584 | -22.60553 | 2661 ft | 201 kts | 4° |
| 2026-05-07 00:00 | 63.84934 | -22.60555 | 2409 ft | 187 kts | 5° |
| 2026-05-07 00:00 | 63.86170 | -22.60558 | 2168 ft | 169 kts | 4° |
| 2026-05-07 00:00 | 63.87294 | -22.60558 | 1944 ft | 154 kts | 4° |